Flight Track Log - Related Links

Times and Time Zones

All times are in EDT time to prevent confusion due to time zone crossing. See the DAL4165 flight status page for this flight to view local times or setup timezone preferences in your user account.

Time Position Orientation Groundspeed Altitude Reporting Facility
EDT Latitude Longitude Course Direction KTS MPH feet Rate Location/Type
Sun 07:28:57 PM 35.3539 -97.5917 174° South 152 175 3,200  Level Fort Worth Center
Sun 07:30:00 PM 35.3833 -97.4513 90° East  Level FlightAware Approximate
Sun 07:30:42 PM 35.3206 -97.4822 90° East 287 330 5,900  Level Fort Worth Center
Sun 07:31:00 PM 35.3941 -97.1995 85° East  Level FlightAware Approximate
Sun 07:31:42 PM 35.3228 -97.3831 88° East 294 338 8,600  Level Fort Worth Center
Sun 07:32:00 PM 35.4000 -97.0661 90° East  Level FlightAware Approximate
Sun 07:32:42 PM 35.3311 -97.2661 85° East 299 344 11,000  Level Fort Worth Center
Sun 07:33:00 PM 35.4000 -96.9324 90° East  Level FlightAware Approximate
Sun 07:33:42 PM 35.3308 -97.1361 90° East 336 387 11,700  Level Fort Worth Center
Sun 07:34:42 PM 35.3367 -96.9986 87° East 380 437 14,300 2,450 Climbing Fort Worth Center
Sun 07:35:42 PM 35.3403 -96.8639 88° East 390 449 16,600 2,250 Climbing Fort Worth Center
Sun 07:36:42 PM 35.3439 -96.7314 88° East 390 449 18,800 2,000 Climbing Fort Worth Center
Sun 07:37:42 PM 35.3431 -96.5942 90° East 390 449 20,600 1,750 Climbing Fort Worth Center
Sun 07:38:42 PM 35.3400 -96.4542 91° East 395 455 22,300 1,650 Climbing Fort Worth Center
Sun 07:39:42 PM 35.3347 -96.3142 93° East 407 468 23,900 1,300 Climbing Fort Worth Center
Sun 07:40:42 PM 35.3333 -96.1717 91° East 407 468 24,900 950 Climbing Fort Worth Center
Sun 07:41:42 PM 35.3297 -96.0217 92° East 424 488 25,800 900 Climbing Fort Worth Center
Sun 07:42:42 PM 35.3258 -95.8717 92° East 436 502 26,700 900 Climbing Fort Worth Center
Sun 07:43:42 PM 35.3239 -95.7139 91° East 446 513 27,600 1,158 Climbing Fort Worth Center
Sun 07:45:33 PM 35.3153 -95.4258 92° East 444 511 30,000 1,298 Climbing Memphis Center
Sun 07:46:33 PM 35.3069 -95.2725 94° East 444 511 31,300 1,250 Climbing Memphis Center
Sun 07:47:33 PM 35.3022 -95.1222 92° East 444 511 32,500 1,100 Climbing Memphis Center
Sun 07:48:33 PM 35.2956 -94.9692 93° East 444 511 33,500 1,050 Climbing Memphis Center
Sun 07:49:33 PM 35.2906 -94.8189 92° East 444 511 34,600 750 Climbing Memphis Center
Sun 07:50:33 PM 35.2833 -94.6683 93° East 444 511 35,000 200 Climbing Memphis Center
Sun 07:51:33 PM 35.2783 -94.5078 92° East 457 526 35,000  Level Memphis Center
Sun 07:52:33 PM 35.2711 -94.3500 93° East 463 533 35,000  Level Memphis Center
Sun 07:53:33 PM 35.2656 -94.1919 92° East 463 533 35,000  Level Memphis Center
Sun 07:54:33 PM 35.2600 -94.0342 92° East 463 533 35,000  Level Memphis Center
Sun 07:55:33 PM 35.2500 -93.8708 94° East 463 533 35,000  Level Memphis Center
Sun 07:56:33 PM 35.2439 -93.7106 93° East 468 539 35,000  Level Memphis Center
Sun 07:57:33 PM 35.2336 -93.5500 94° East 468 539 35,000 550 Level Memphis Center
Sun 07:58:33 PM 35.2250 -93.3919 94° East 468 539 36,100 1,000 Climbing Memphis Center
Sun 07:59:33 PM 35.2219 -93.2547 92° East 461 531 37,000 450 Climbing Memphis Center
Sun 08:00:33 PM 35.2172 -93.1019 92° East 456 525 37,000  Level Memphis Center
Sun 08:01:33 PM 35.2081 -92.9417 94° East 466 536 37,000  Level Memphis Center
Sun 08:02:33 PM 35.1989 -92.7711 94° East 474 545 37,000  Level Memphis Center
Sun 08:03:33 PM 35.1856 -92.5903 95° East 487 560 37,000  Level Memphis Center
Sun 08:04:33 PM 35.1781 -92.4275 93° East 487 560 37,000  Level Memphis Center
Sun 08:05:33 PM 35.1681 -92.2647 94° East 481 554 37,000  Level Memphis Center
Sun 08:06:33 PM 35.1581 -92.1019 94° East 481 554 37,000  Level Memphis Center
Sun 08:07:33 PM 35.1497 -91.9392 94° East 481 554 37,000  Level Memphis Center
Sun 08:08:33 PM 35.1392 -91.7764 94° East 481 554 37,000  Level Memphis Center
Sun 08:09:33 PM 35.1306 -91.6089 94° East 481 554 37,000  Level Memphis Center
Sun 08:10:33 PM 35.1194 -91.4411 95° East 481 554 37,000  Level Memphis Center
Sun 08:11:33 PM 35.1103 -91.2761 94° East 481 554 37,000  Level Memphis Center
Sun 08:12:33 PM 35.0989 -91.1133 95° East 481 554 37,000  Level Memphis Center
Sun 08:13:33 PM 35.0875 -90.9433 95° East 494 568 37,000  Level Memphis Center
Sun 08:14:33 PM 35.0756 -90.7808 95° East 494 568 37,000  Level Memphis Center
Sun 08:15:33 PM 35.0656 -90.6311 95° East 494 568 37,000  Level Memphis Center
Sun 08:16:33 PM 35.0553 -90.4636 94° East 494 568 37,000  Level Memphis Center
Sun 08:17:33 PM 35.0408 -90.2961 96° East 499 574 37,000  Level Memphis Center
Sun 08:18:33 PM 35.0281 -90.1314 95° East 499 574 37,000  Level Memphis Center
Sun 08:19:33 PM 35.0172 -89.9642 94° East 499 574 37,000  Level Memphis Center
Sun 08:20:33 PM 34.9933 -89.7792 99° East 494 568 37,000  Level Memphis Center
Sun 08:21:33 PM 34.9653 -89.6069 101° East 507 583 37,000  Level Memphis Center
Sun 08:22:33 PM 34.9372 -89.4428 102° East 501 577 37,000  Level Memphis Center
Sun 08:23:33 PM 34.9108 -89.2783 101° East 501 577 37,000  Level Memphis Center
Sun 08:24:33 PM 34.8886 -89.1292 100° East 501 577 37,000  Level Memphis Center
Sun 08:25:33 PM 34.8639 -88.9625 100° East 496 571 37,000  Level Memphis Center
Sun 08:26:33 PM 34.8389 -88.7933 100° East 496 571 37,000  Level Memphis Center
Sun 08:27:33 PM 34.8117 -88.6294 101° East 496 571 37,000  Level Memphis Center
Sun 08:28:33 PM 34.7864 -88.4758 101° East 483 556 37,000  Level Memphis Center
Sun 08:29:33 PM 34.7631 -88.3197 100° East 472 543 37,000  Level Memphis Center
Sun 08:30:33 PM 34.7369 -88.1358 100° East 472 543 37,000 -50 Level Memphis Center
Sun 08:31:33 PM 34.7069 -87.9800 103° East 487 560 36,900 -600 Descending Memphis Center
Sun 08:32:33 PM 34.6828 -87.8164 100° East 487 560 35,800 -1,100 Descending Memphis Center
Sun 08:33:33 PM 34.6567 -87.6631 102° East 482 555 34,700 -1,100 Descending Memphis Center
Sun 08:34:33 PM 34.6306 -87.5150 102° East 469 540 33,600 -718 Descending Memphis Center
Sun 08:35:55 PM 34.5983 -87.3067 101° East 452 520 33,000 -254 Descending Atlanta Center
Sun 08:36:55 PM 34.5667 -87.1514 104° East 452 520 33,000  Level Atlanta Center
Sun 08:37:55 PM 34.5372 -86.9942 103° East 462 532 33,000 -350 Level Atlanta Center
Sun 08:38:55 PM 34.5056 -86.8392 104° East 468 539 32,300 -1,050 Descending Atlanta Center
Sun 08:39:55 PM 34.4756 -86.6819 103° East 473 544 30,900 -1,400 Descending Atlanta Center
Sun 08:40:55 PM 34.4475 -86.5275 102° East 473 544 29,500 -1,400 Descending Atlanta Center
Sun 08:41:55 PM 34.4189 -86.3856 104° East 452 520 28,100 -1,400 Descending Atlanta Center
Sun 08:42:55 PM 34.3903 -86.2464 104° East 438 504 26,700 -1,450 Descending Atlanta Center
Sun 08:43:55 PM 34.3656 -86.1097 102° East 424 488 25,200 -1,350 Descending Atlanta Center
Sun 08:44:55 PM 34.3403 -85.9833 104° East 402 463 24,000 -1,350 Descending Atlanta Center
Sun 08:45:55 PM 34.3150 -85.8597 104° East 386 444 22,500 -1,350 Descending Atlanta Center
Sun 08:46:55 PM 34.2936 -85.7536 104° East 370 426 21,300 -1,300 Descending Atlanta Center
Sun 08:47:55 PM 34.2703 -85.6275 103° East 370 426 19,900 -1,450 Descending Atlanta Center
Sun 08:48:55 PM 34.2322 -85.4986 110° East 389 448 18,400 -1,500 Descending Atlanta Center
Sun 08:49:55 PM 34.1981 -85.3775 109° East 395 455 16,900 -1,500 Descending Atlanta Center
Sun 08:50:55 PM 34.1597 -85.2564 111° Southeast 383 441 15,400 -1,450 Descending Atlanta Center
Sun 08:51:55 PM 34.1253 -85.1381 109° East 371 427 14,000 -1,200 Descending Atlanta Center
Sun 08:52:55 PM 34.0825 -85.0169 113° Southeast 371 427 13,000 -1,000 Descending Atlanta Center
Sun 08:53:55 PM 34.0206 -84.9486 138° Southeast 305 351 12,000 -1,400 Descending Atlanta Center
Sun 08:54:55 PM 33.9456 -84.9353 172° South 280 322 10,200 -1,100 Descending Atlanta Center
Sun 08:55:55 PM 33.8725 -84.9269 175° South 267 307 9,800 -600 Descending Atlanta Center
Sun 08:56:55 PM 33.7994 -84.9189 175° South 267 307 9,000 -1,150 Descending Atlanta Center
Sun 08:57:55 PM 33.7389 -84.9106 173° South 244 281 7,500 -1,000 Descending Atlanta Center
Sun 08:58:55 PM 33.6806 -84.9000 171° South 223 257 7,000 -250 Descending Atlanta Center
Sun 08:59:55 PM 33.6456 -84.8522 131° Southeast 191 220 7,000  Level Atlanta Center
Sun 09:00:27 PM 33.6333 -84.8167 112° Southeast 223 257 7,000  Level Atlanta TRACON

Login

Don't have an account? Register now (free) for customized features, flight alerts, and more!